sensor_id;sensor_type;location;lat;lon;timestamp;pressure;altitude;pressure_sealevel;temperature;humidity
72157;BME280;60035;52.122;5.406;2023-04-04T00:00:36;103288.66;;;2.00;74.56
72157;BME280;60035;52.122;5.406;2023-04-04T00:03:04;103287.00;;;2.00;74.17
72157;BME280;60035;52.122;5.406;2023-04-04T00:05:31;103290.38;;;2.01;73.99
72157;BME280;60035;52.122;5.406;2023-04-04T00:07:58;103290.38;;;2.01;73.88
72157;BME280;60035;52.122;5.406;2023-04-04T00:10:24;103279.41;;;2.00;73.79
72157;BME280;60035;52.122;5.406;2023-04-04T00:12:51;103278.34;;;1.95;73.89
72157;BME280;60035;52.122;5.406;2023-04-04T00:15:18;103274.94;;;1.95;73.99
72157;BME280;60035;52.122;5.406;2023-04-04T00:17:44;103269.97;;;1.96;73.98
72157;BME280;60035;52.122;5.406;2023-04-04T00:20:11;103262.44;;;1.98;73.90
72157;BME280;60035;52.122;5.406;2023-04-04T00:22:38;103263.91;;;1.93;74.32
72157;BME280;60035;52.122;5.406;2023-04-04T00:25:04;103263.16;;;1.95;74.03
72157;BME280;60035;52.122;5.406;2023-04-04T00:27:31;103263.03;;;1.92;74.25
72157;BME280;60035;52.122;5.406;2023-04-04T00:29:57;103256.78;;;1.84;74.62
72157;BME280;60035;52.122;5.406;2023-04-04T00:32:24;103254.03;;;1.79;74.69
72157;BME280;60035;52.122;5.406;2023-04-04T00:34:52;103250.66;;;1.79;74.97
72157;BME280;60035;52.122;5.406;2023-04-04T00:37:19;103248.78;;;1.75;75.25
72157;BME280;60035;52.122;5.406;2023-04-04T00:39:46;103249.28;;;1.67;75.83
72157;BME280;60035;52.122;5.406;2023-04-04T00:42:13;103243.78;;;1.58;76.14
72157;BME280;60035;52.122;5.406;2023-04-04T00:44:40;103251.91;;;1.51;76.49
72157;BME280;60035;52.122;5.406;2023-04-04T00:47:06;103261.75;;;1.46;76.58
72157;BME280;60035;52.122;5.406;2023-04-04T00:49:33;103263.19;;;1.41;76.74
72157;BME280;60035;52.122;5.406;2023-04-04T00:51:59;103247.78;;;1.35;76.97
72157;BME280;60035;52.122;5.406;2023-04-04T00:54:26;103259.13;;;1.27;77.10
72157;BME280;60035;52.122;5.406;2023-04-04T00:56:52;103253.50;;;1.14;77.23
72157;BME280;60035;52.122;5.406;2023-04-04T00:59:25;103258.31;;;1.10;77.61
72157;BME280;60035;52.122;5.406;2023-04-04T01:01:53;103257.31;;;1.06;77.55
72157;BME280;60035;52.122;5.406;2023-04-04T01:04:19;103252.09;;;1.03;78.10
72157;BME280;60035;52.122;5.406;2023-04-04T01:06:46;103257.00;;;1.00;78.22
72157;BME280;60035;52.122;5.406;2023-04-04T01:09:14;103257.59;;;0.94;78.53
72157;BME280;60035;52.122;5.406;2023-04-04T01:11:41;103259.78;;;0.88;78.57
72157;BME280;60035;52.122;5.406;2023-04-04T01:14:08;103259.66;;;0.85;79.06
72157;BME280;60035;52.122;5.406;2023-04-04T01:16:35;103259.47;;;0.82;78.94
72157;BME280;60035;52.122;5.406;2023-04-04T01:19:05;103259.25;;;0.77;79.24
72157;BME280;60035;52.122;5.406;2023-04-04T01:21:34;103260.13;;;0.78;79.37
72157;BME280;60035;52.122;5.406;2023-04-04T01:24:02;103252.34;;;0.73;79.63
72157;BME280;60035;52.122;5.406;2023-04-04T01:26:30;103245.47;;;0.71;80.09
72157;BME280;60035;52.122;5.406;2023-04-04T01:28:57;103249.56;;;0.69;80.26
72157;BME280;60035;52.122;5.406;2023-04-04T01:34:10;103262.88;;;0.66;80.45
72157;BME280;60035;52.122;5.406;2023-04-04T01:36:45;103258.66;;;0.65;80.15
72157;BME280;60035;52.122;5.406;2023-04-04T01:39:26;103255.97;;;0.62;80.53
72157;BME280;60035;52.122;5.406;2023-04-04T01:41:55;103255.97;;;0.62;80.42
72157;BME280;60035;52.122;5.406;2023-04-04T01:44:22;103255.81;;;0.59;80.90
72157;BME280;60035;52.122;5.406;2023-04-04T01:46:53;103269.97;;;0.57;80.79
72157;BME280;60035;52.122;5.406;2023-04-04T01:49:22;103269.13;;;0.56;81.01
72157;BME280;60035;52.122;5.406;2023-04-04T01:51:50;103258.34;;;0.59;80.65
72157;BME280;60035;52.122;5.406;2023-04-04T01:54:17;103262.34;;;0.55;80.69
72157;BME280;60035;52.122;5.406;2023-04-04T01:56:44;103266.34;;;0.52;80.71
72157;BME280;60035;52.122;5.406;2023-04-04T01:59:13;103255.25;;;0.48;80.73
72157;BME280;60035;52.122;5.406;2023-04-04T02:01:40;103251.63;;;0.43;81.11
72157;BME280;60035;52.122;5.406;2023-04-04T02:04:06;103250.69;;;0.41;81.10
72157;BME280;60035;52.122;5.406;2023-04-04T02:06:37;103249.44;;;0.32;81.51
72157;BME280;60035;52.122;5.406;2023-04-04T02:09:03;103256.91;;;0.31;81.98
72157;BME280;60035;52.122;5.406;2023-04-04T02:11:30;103257.53;;;0.27;82.03
72157;BME280;60035;52.122;5.406;2023-04-04T02:13:56;103261.47;;;0.22;82.11
72157;BME280;60035;52.122;5.406;2023-04-04T02:16:23;103262.25;;;0.21;82.44
72157;BME280;60035;52.122;5.406;2023-04-04T02:18:50;103267.38;;;0.22;81.92
72157;BME280;60035;52.122;5.406;2023-04-04T02:21:16;103261.47;;;0.22;82.08
72157;BME280;60035;52.122;5.406;2023-04-04T02:23:43;103270.59;;;0.20;81.98
72157;BME280;60035;52.122;5.406;2023-04-04T02:26:09;103271.41;;;0.19;81.82
72157;BME280;60035;52.122;5.406;2023-04-04T02:28:36;103273.72;;;0.15;82.20
72157;BME280;60035;52.122;5.406;2023-04-04T02:31:02;103274.50;;;0.14;82.02
72157;BME280;60035;52.122;5.406;2023-04-04T02:33:29;103263.72;;;0.17;82.22
72157;BME280;60035;52.122;5.406;2023-04-04T02:36:00;103269.81;;;0.21;81.72
72157;BME280;60035;52.122;5.406;2023-04-04T02:38:26;103264.84;;;0.22;81.50
72157;BME280;60035;52.122;5.406;2023-04-04T02:40:53;103260.50;;;0.20;82.17
72157;BME280;60035;52.122;5.406;2023-04-04T02:43:20;103252.81;;;0.16;82.03
72157;BME280;60035;52.122;5.406;2023-04-04T02:45:47;103249.25;;;0.13;82.34
72157;BME280;60035;52.122;5.406;2023-04-04T02:48:14;103247.28;;;0.07;82.53
72157;BME280;60035;52.122;5.406;2023-04-04T02:50:41;103244.41;;;0.01;82.61
72157;BME280;60035;52.122;5.406;2023-04-04T02:53:08;103246.44;;;-0.08;83.32
72157;BME280;60035;52.122;5.406;2023-04-04T02:55:34;103245.88;;;-0.19;83.18
72157;BME280;60035;52.122;5.406;2023-04-04T02:58:01;103247.34;;;-0.23;84.18
72157;BME280;60035;52.122;5.406;2023-04-04T03:00:28;103238.88;;;-0.25;84.13
72157;BME280;60035;52.122;5.406;2023-04-04T03:02:55;103238.94;;;-0.23;84.63
72157;BME280;60035;52.122;5.406;2023-04-04T03:05:23;103233.84;;;-0.25;84.51
72157;BME280;60035;52.122;5.406;2023-04-04T03:07:54;103242.00;;;-0.29;84.45
72157;BME280;60035;52.122;5.406;2023-04-04T03:10:24;103242.72;;;-0.31;84.62
72157;BME280;60035;52.122;5.406;2023-04-04T03:12:51;103239.22;;;-0.34;84.42
72157;BME280;60035;52.122;5.406;2023-04-04T03:15:18;103247.47;;;-0.36;85.07
72157;BME280;60035;52.122;5.406;2023-04-04T03:17:45;103247.47;;;-0.36;84.82
72157;BME280;60035;52.122;5.406;2023-04-04T03:20:12;103248.16;;;-0.39;85.19
72157;BME280;60035;52.122;5.406;2023-04-04T03:22:40;103240.47;;;-0.42;85.44
72157;BME280;60035;52.122;5.406;2023-04-04T03:25:08;103241.31;;;-0.41;85.56
72157;BME280;60035;52.122;5.406;2023-04-04T03:27:34;103236.91;;;-0.45;85.66
72157;BME280;60035;52.122;5.406;2023-04-04T03:30:01;103241.16;;;-0.44;86.07
72157;BME280;60035;52.122;5.406;2023-04-04T03:32:28;103234.47;;;-0.44;85.94
72157;BME280;60035;52.122;5.406;2023-04-04T03:34:54;103234.22;;;-0.48;86.31
72157;BME280;60035;52.122;5.406;2023-04-04T03:37:21;103231.56;;;-0.52;86.29
72157;BME280;60035;52.122;5.406;2023-04-04T03:39:48;103229.13;;;-0.50;86.59
72157;BME280;60035;52.122;5.406;2023-04-04T03:42:14;103227.38;;;-0.51;86.61
72157;BME280;60035;52.122;5.406;2023-04-04T03:44:42;103222.88;;;-0.57;86.80
72157;BME280;60035;52.122;5.406;2023-04-04T03:47:08;103223.38;;;-0.62;86.94
72157;BME280;60035;52.122;5.406;2023-04-04T03:49:34;103232.44;;;-0.66;87.09
72157;BME280;60035;52.122;5.406;2023-04-04T03:52:01;103233.44;;;-0.62;87.18
72157;BME280;60035;52.122;5.406;2023-04-04T03:54:28;103220.00;;;-0.63;87.05
72157;BME280;60035;52.122;5.406;2023-04-04T03:56:55;103228.09;;;-0.69;87.03
72157;BME280;60035;52.122;5.406;2023-04-04T03:59:22;103225.38;;;-0.72;87.24
72157;BME280;60035;52.122;5.406;2023-04-04T04:01:49;103235.38;;;-0.73;87.30
72157;BME280;60035;52.122;5.406;2023-04-04T04:04:16;103230.00;;;-0.79;87.37
72157;BME280;60035;52.122;5.406;2023-04-04T04:06:42;103232.50;;;-0.79;87.60
72157;BME280;60035;52.122;5.406;2023-04-04T04:09:09;103235.91;;;-0.79;87.27
72157;BME280;60035;52.122;5.406;2023-04-04T04:11:37;103233.03;;;-0.85;87.39
72157;BME280;60035;52.122;5.406;2023-04-04T04:14:03;103243.97;;;-0.85;87.66
72157;BME280;60035;52.122;5.406;2023-04-04T04:16:30;103243.09;;;-0.85;88.23
72157;BME280;60035;52.122;5.406;2023-04-04T04:18:58;103238.94;;;-0.85;88.09
72157;BME280;60035;52.122;5.406;2023-04-04T04:21:24;103238.84;;;-0.86;88.65
72157;BME280;60035;52.122;5.406;2023-04-04T04:23:51;103236.44;;;-0.85;88.56
72157;BME280;60035;52.122;5.406;2023-04-04T04:26:18;103238.84;;;-0.86;88.64
72157;BME280;60035;52.122;5.406;2023-04-04T04:28:44;103245.53;;;-0.87;89.31
72157;BME280;60035;52.122;5.406;2023-04-04T04:31:13;103234.63;;;-0.87;89.30
72157;BME280;60035;52.122;5.406;2023-04-04T04:33:40;103239.72;;;-0.86;89.52
72157;BME280;60035;52.122;5.406;2023-04-04T04:36:07;103240.41;;;-0.88;89.79
72157;BME280;60035;52.122;5.406;2023-04-04T04:38:33;103240.34;;;-0.90;89.62
72157;BME280;60035;52.122;5.406;2023-04-04T04:41:00;103239.44;;;-0.90;90.11
72157;BME280;60035;52.122;5.406;2023-04-04T04:43:27;103235.09;;;-0.93;90.72
72157;BME280;60035;52.122;5.406;2023-04-04T04:45:54;103237.81;;;-0.90;90.44
72157;BME280;60035;52.122;5.406;2023-04-04T04:48:20;103237.75;;;-0.91;90.37
72157;BME280;60035;52.122;5.406;2023-04-04T04:50:47;103233.56;;;-0.91;89.80
72157;BME280;60035;52.122;5.406;2023-04-04T04:53:14;103241.97;;;-0.90;90.06
72157;BME280;60035;52.122;5.406;2023-04-04T04:55:41;103239.22;;;-0.95;90.02
72157;BME280;60035;52.122;5.406;2023-04-04T04:58:11;103245.00;;;-0.96;90.30
72157;BME280;60035;52.122;5.406;2023-04-04T05:00:38;103251.41;;;-1.01;90.42
72157;BME280;60035;52.122;5.406;2023-04-04T05:03:05;103252.38;;;-0.99;90.83
72157;BME280;60035;52.122;5.406;2023-04-04T05:05:36;103247.16;;;-1.02;90.56
72157;BME280;60035;52.122;5.406;2023-04-04T05:08:03;103249.50;;;-1.05;91.24
72157;BME280;60035;52.122;5.406;2023-04-04T05:10:30;103247.59;;;-1.09;90.82
72157;BME280;60035;52.122;5.406;2023-04-04T05:12:57;103245.25;;;-1.06;91.07
72157;BME280;60035;52.122;5.406;2023-04-04T05:15:24;103255.38;;;-1.05;90.82
72157;BME280;60035;52.122;5.406;2023-04-04T05:17:56;103256.19;;;-1.06;90.95
72157;BME280;60035;52.122;5.406;2023-04-04T05:20:23;103258.44;;;-1.10;91.43
72157;BME280;60035;52.122;5.406;2023-04-04T05:22:50;103250.72;;;-1.13;90.99
72157;BME280;60035;52.122;5.406;2023-04-04T05:25:17;103256.53;;;-1.14;91.63
72157;BME280;60035;52.122;5.406;2023-04-04T05:27:47;103257.38;;;-1.14;91.85
72157;BME280;60035;52.122;5.406;2023-04-04T05:30:14;103262.41;;;-1.14;91.81
72157;BME280;60035;52.122;5.406;2023-04-04T05:32:43;103255.84;;;-1.12;91.90
72157;BME280;60035;52.122;5.406;2023-04-04T05:35:11;103245.50;;;-1.17;92.05
72157;BME280;60035;52.122;5.406;2023-04-04T05:37:38;103252.88;;;-1.20;92.40
72157;BME280;60035;52.122;5.406;2023-04-04T05:40:06;103254.84;;;-1.14;92.75
72157;BME280;60035;52.122;5.406;2023-04-04T05:42:33;103252.47;;;-1.12;93.17
72157;BME280;60035;52.122;5.406;2023-04-04T05:45:00;103257.81;;;-1.06;93.37
72157;BME280;60035;52.122;5.406;2023-04-04T05:47:27;103255.50;;;-1.03;93.34
72157;BME280;60035;52.122;5.406;2023-04-04T05:49:53;103254.81;;;-1.01;93.07
72157;BME280;60035;52.122;5.406;2023-04-04T05:52:20;103254.97;;;-0.97;93.41
72157;BME280;60035;52.122;5.406;2023-04-04T05:54:47;103253.31;;;-0.97;93.31
72157;BME280;60035;52.122;5.406;2023-04-04T05:57:13;103260.09;;;-0.96;93.77
72157;BME280;60035;52.122;5.406;2023-04-04T05:59:40;103267.81;;;-0.93;94.04
72157;BME280;60035;52.122;5.406;2023-04-04T06:02:06;103261.22;;;-0.91;94.53
72157;BME280;60035;52.122;5.406;2023-04-04T06:04:33;103266.63;;;-0.85;94.88
72157;BME280;60035;52.122;5.406;2023-04-04T06:07:00;103261.84;;;-0.80;94.78
72157;BME280;60035;52.122;5.406;2023-04-04T06:09:26;103256.28;;;-0.74;94.96
72157;BME280;60035;52.122;5.406;2023-04-04T06:11:53;103261.50;;;-0.71;94.82
72157;BME280;60035;52.122;5.406;2023-04-04T06:14:19;103264.63;;;-0.75;95.09
72157;BME280;60035;52.122;5.406;2023-04-04T06:16:46;103271.56;;;-0.71;95.26
72157;BME280;60035;52.122;5.406;2023-04-04T06:19:12;103261.94;;;-0.63;96.04
72157;BME280;60035;52.122;5.406;2023-04-04T06:21:39;103260.63;;;-0.57;95.84
72157;BME280;60035;52.122;5.406;2023-04-04T06:24:06;103262.53;;;-0.53;95.62
72157;BME280;60035;52.122;5.406;2023-04-04T06:26:33;103253.75;;;-0.44;95.87
72157;BME280;60035;52.122;5.406;2023-04-04T06:28:59;103249.91;;;-0.38;95.59
72157;BME280;60035;52.122;5.406;2023-04-04T06:31:26;103247.91;;;-0.28;95.49
72157;BME280;60035;52.122;5.406;2023-04-04T06:33:52;103243.28;;;-0.21;95.88
72157;BME280;60035;52.122;5.406;2023-04-04T06:36:19;103258.34;;;-0.06;95.51
72157;BME280;60035;52.122;5.406;2023-04-04T06:38:46;103254.19;;;0.11;95.48
72157;BME280;60035;52.122;5.406;2023-04-04T06:41:13;103259.97;;;0.25;94.94
72157;BME280;60035;52.122;5.406;2023-04-04T06:43:39;103263.13;;;0.38;94.79
72157;BME280;60035;52.122;5.406;2023-04-04T06:46:06;103265.50;;;0.51;94.67
72157;BME280;60035;52.122;5.406;2023-04-04T06:48:33;103261.06;;;0.63;94.63
72157;BME280;60035;52.122;5.406;2023-04-04T06:50:59;103266.75;;;0.76;94.56
72157;BME280;60035;52.122;5.406;2023-04-04T06:53:26;103266.50;;;0.88;94.76
72157;BME280;60035;52.122;5.406;2023-04-04T06:55:53;103273.75;;;0.98;94.34
72157;BME280;60035;52.122;5.406;2023-04-04T06:58:19;103269.22;;;1.09;94.20
72157;BME280;60035;52.122;5.406;2023-04-04T07:00:46;103267.94;;;1.17;94.07
72157;BME280;60035;52.122;5.406;2023-04-04T07:03:13;103266.72;;;1.27;93.67
72157;BME280;60035;52.122;5.406;2023-04-04T07:05:39;103263.06;;;1.38;93.08
72157;BME280;60035;52.122;5.406;2023-04-04T07:08:07;103268.69;;;1.50;93.03
72157;BME280;60035;52.122;5.406;2023-04-04T07:10:33;103259.19;;;1.63;92.54
72157;BME280;60035;52.122;5.406;2023-04-04T07:13:00;103263.28;;;1.79;92.28
72157;BME280;60035;52.122;5.406;2023-04-04T07:15:27;103263.84;;;1.91;91.66
72157;BME280;60035;52.122;5.406;2023-04-04T07:17:53;103262.75;;;2.04;91.17
72157;BME280;60035;52.122;5.406;2023-04-04T07:20:20;103265.06;;;2.19;90.58
72157;BME280;60035;52.122;5.406;2023-04-04T07:22:47;103264.75;;;2.31;89.90
72157;BME280;60035;52.122;5.406;2023-04-04T07:25:14;103267.69;;;2.40;88.88
72157;BME280;60035;52.122;5.406;2023-04-04T07:27:40;103259.78;;;2.52;87.76
72157;BME280;60035;52.122;5.406;2023-04-04T07:30:07;103266.34;;;2.68;86.87
72157;BME280;60035;52.122;5.406;2023-04-04T07:32:34;103261.75;;;2.79;85.19
72157;BME280;60035;52.122;5.406;2023-04-04T07:35:01;103258.00;;;2.90;84.01
72157;BME280;60035;52.122;5.406;2023-04-04T07:37:30;103259.13;;;2.97;82.45
72157;BME280;60035;52.122;5.406;2023-04-04T07:39:56;103256.97;;;3.06;81.50
72157;BME280;60035;52.122;5.406;2023-04-04T07:42:23;103255.66;;;3.16;80.08
72157;BME280;60035;52.122;5.406;2023-04-04T07:44:51;103260.97;;;3.22;79.37
72157;BME280;60035;52.122;5.406;2023-04-04T07:47:17;103269.69;;;3.29;78.82
72157;BME280;60035;52.122;5.406;2023-04-04T07:49:44;103267.41;;;3.35;78.12
72157;BME280;60035;52.122;5.406;2023-04-04T07:52:11;103266.03;;;3.43;77.68
72157;BME280;60035;52.122;5.406;2023-04-04T07:54:37;103269.41;;;3.44;76.51
72157;BME280;60035;52.122;5.406;2023-04-04T07:57:05;103263.44;;;3.42;76.05
72157;BME280;60035;52.122;5.406;2023-04-04T07:59:35;103255.84;;;3.42;75.91
72157;BME280;60035;52.122;5.406;2023-04-04T08:02:02;103250.72;;;3.40;75.68
72157;BME280;60035;52.122;5.406;2023-04-04T08:04:29;103253.31;;;3.42;75.76
72157;BME280;60035;52.122;5.406;2023-04-04T08:06:55;103262.06;;;3.50;75.32
72157;BME280;60035;52.122;5.406;2023-04-04T08:09:22;103254.19;;;3.65;75.28
72157;BME280;60035;52.122;5.406;2023-04-04T08:11:50;103252.00;;;3.74;74.56
72157;BME280;60035;52.122;5.406;2023-04-04T08:14:16;103250.72;;;3.84;74.01
72157;BME280;60035;52.122;5.406;2023-04-04T08:16:43;103243.59;;;3.98;73.95
72157;BME280;60035;52.122;5.406;2023-04-04T08:19:09;103233.94;;;4.10;73.44
72157;BME280;60035;52.122;5.406;2023-04-04T08:21:36;103241.13;;;4.22;73.08
72157;BME280;60035;52.122;5.406;2023-04-04T08:24:02;103241.63;;;4.38;72.56
72157;BME280;60035;52.122;5.406;2023-04-04T08:26:29;103236.34;;;4.56;71.86
72157;BME280;60035;52.122;5.406;2023-04-04T08:29:04;103238.34;;;4.64;71.46
72157;BME280;60035;52.122;5.406;2023-04-04T08:31:31;103238.66;;;4.74;70.83
72157;BME280;60035;52.122;5.406;2023-04-04T08:33:58;103229.66;;;4.83;70.32
72157;BME280;60035;52.122;5.406;2023-04-04T08:36:27;103234.25;;;4.94;69.33
72157;BME280;60035;52.122;5.406;2023-04-04T08:38:54;103232.88;;;5.05;68.72
72157;BME280;60035;52.122;5.406;2023-04-04T08:41:20;103229.13;;;5.20;67.55
72157;BME280;60035;52.122;5.406;2023-04-04T08:43:49;103224.53;;;5.35;66.80
72157;BME280;60035;52.122;5.406;2023-04-04T08:46:21;103217.22;;;5.46;66.15
72157;BME280;60035;52.122;5.406;2023-04-04T08:48:49;103217.50;;;5.55;65.47
72157;BME280;60035;52.122;5.406;2023-04-04T08:51:18;103224.63;;;5.67;64.88
72157;BME280;60035;52.122;5.406;2023-04-04T08:53:45;103218.09;;;5.75;64.18
72157;BME280;60035;52.122;5.406;2023-04-04T08:56:12;103215.91;;;5.88;64.06
72157;BME280;60035;52.122;5.406;2023-04-04T08:58:39;103220.63;;;6.04;63.62
72157;BME280;60035;52.122;5.406;2023-04-04T09:01:05;103221.03;;;6.18;62.45
72157;BME280;60035;52.122;5.406;2023-04-04T09:03:33;103218.00;;;6.31;61.39
72157;BME280;60035;52.122;5.406;2023-04-04T09:06:03;103212.47;;;6.48;60.25
72157;BME280;60035;52.122;5.406;2023-04-04T09:08:30;103212.88;;;6.63;59.21
72157;BME280;60035;52.122;5.406;2023-04-04T09:14:31;103220.03;;;6.78;57.34
72157;BME280;60035;52.122;5.406;2023-04-04T09:16:58;103223.69;;;6.88;57.08
72157;BME280;60035;52.122;5.406;2023-04-04T09:19:25;103212.78;;;6.94;55.45
72157;BME280;60035;52.122;5.406;2023-04-04T09:26:11;103221.97;;;7.24;54.90
72157;BME280;60035;52.122;5.406;2023-04-04T09:29:25;103213.47;;;7.25;54.93
72157;BME280;60035;52.122;5.406;2023-04-04T09:32:15;103214.56;;;7.34;55.34
72157;BME280;60035;52.122;5.406;2023-04-04T09:35:30;103214.97;;;7.53;55.25
72157;BME280;60035;52.122;5.406;2023-04-04T09:38:59;103207.56;;;7.65;53.83
72157;BME280;60035;52.122;5.406;2023-04-04T09:42:18;103212.19;;;7.83;54.56
72157;BME280;60035;52.122;5.406;2023-04-04T09:45:33;103202.38;;;8.04;53.75
72157;BME280;60035;52.122;5.406;2023-04-04T09:55:26;103189.22;;;8.28;51.64
72157;BME280;60035;52.122;5.406;2023-04-04T10:05:32;103184.47;;;9.00;49.49
72157;BME280;60035;52.122;5.406;2023-04-04T10:08:27;103181.16;;;9.07;49.55
72157;BME280;60035;52.122;5.406;2023-04-04T10:17:35;103167.06;;;9.34;48.43
72157;BME280;60035;52.122;5.406;2023-04-04T10:20:55;103171.44;;;9.43;47.36
72157;BME280;60035;52.122;5.406;2023-04-04T10:24:18;103163.81;;;9.46;47.63
72157;BME280;60035;52.122;5.406;2023-04-04T10:27:29;103155.34;;;9.52;46.61
72157;BME280;60035;52.122;5.406;2023-04-04T10:41:30;103148.63;;;9.60;43.93
72157;BME280;60035;52.122;5.406;2023-04-04T10:45:08;103142.88;;;9.78;44.27
72157;BME280;60035;52.122;5.406;2023-04-04T10:48:36;103142.91;;;9.84;43.59
72157;BME280;60035;52.122;5.406;2023-04-04T10:58:57;103134.84;;;10.33;42.73
72157;BME280;60035;52.122;5.406;2023-04-04T11:16:49;103119.72;;;10.61;41.34
72157;BME280;60035;52.122;5.406;2023-04-04T11:20:13;103115.50;;;10.64;41.33
72157;BME280;60035;52.122;5.406;2023-04-04T11:26:41;103101.31;;;11.22;42.10
72157;BME280;60035;52.122;5.406;2023-04-04T11:29:56;103094.53;;;11.37;41.39
72157;BME280;60035;52.122;5.406;2023-04-04T11:47:30;103088.69;;;12.43;38.41
72157;BME280;60035;52.122;5.406;2023-04-04T11:50:17;103076.69;;;12.51;38.48
72157;BME280;60035;52.122;5.406;2023-04-04T11:52:58;103082.69;;;12.61;38.26
72157;BME280;60035;52.122;5.406;2023-04-04T11:56:32;103075.81;;;12.57;38.62
72157;BME280;60035;52.122;5.406;2023-04-04T12:06:20;103064.59;;;12.92;38.54
72157;BME280;60035;52.122;5.406;2023-04-04T12:09:41;103054.16;;;13.21;37.48
72157;BME280;60035;52.122;5.406;2023-04-04T12:12:27;103054.13;;;13.29;37.84
72157;BME280;60035;52.122;5.406;2023-04-04T12:18:30;103043.06;;;13.19;36.61
72157;BME280;60035;52.122;5.406;2023-04-04T12:22:15;103033.50;;;13.44;36.81
72157;BME280;60035;52.122;5.406;2023-04-04T12:24:59;103037.75;;;13.50;36.90
72157;BME280;60035;52.122;5.406;2023-04-04T12:27:42;103034.19;;;13.66;35.61
72157;BME280;60035;52.122;5.406;2023-04-04T12:30:38;103023.97;;;13.59;35.50
72157;BME280;60035;52.122;5.406;2023-04-04T12:34:47;103026.47;;;13.70;35.73
72157;BME280;60035;52.122;5.406;2023-04-04T12:48:39;103004.59;;;14.17;35.37
72157;BME280;60035;52.122;5.406;2023-04-04T12:52:29;103001.28;;;14.04;35.54
72157;BME280;60035;52.122;5.406;2023-04-04T12:55:58;103009.09;;;13.95;34.77
72157;BME280;60035;52.122;5.406;2023-04-04T12:59:10;103003.13;;;13.88;34.73
72157;BME280;60035;52.122;5.406;2023-04-04T13:02:31;102996.19;;;13.98;34.98
72157;BME280;60035;52.122;5.406;2023-04-04T13:25:10;102958.31;;;14.05;34.66
72157;BME280;60035;52.122;5.406;2023-04-04T13:40:55;102946.22;;;14.88;34.46
72157;BME280;60035;52.122;5.406;2023-04-04T13:44:02;102931.44;;;14.97;34.35
72157;BME280;60035;52.122;5.406;2023-04-04T13:51:40;102920.81;;;15.72;35.27
72157;BME280;60035;52.122;5.406;2023-04-04T14:06:01;102902.81;;;16.57;32.35
72157;BME280;60035;52.122;5.406;2023-04-04T14:09:46;102893.44;;;16.53;33.50
72157;BME280;60035;52.122;5.406;2023-04-04T14:30:18;102879.72;;;17.24;31.49
72157;BME280;60035;52.122;5.406;2023-04-04T14:41:47;102867.34;;;17.01;30.28
72157;BME280;60035;52.122;5.406;2023-04-04T14:45:32;102875.00;;;17.06;31.14
72157;BME280;60035;52.122;5.406;2023-04-04T14:52:28;102860.91;;;17.18;31.05
72157;BME280;60035;52.122;5.406;2023-04-04T14:55:59;102850.78;;;17.08;30.54
72157;BME280;60035;52.122;5.406;2023-04-04T15:00:03;102858.78;;;16.99;30.09
72157;BME280;60035;52.122;5.406;2023-04-04T15:03:39;102851.25;;;16.49;30.23
72157;BME280;60035;52.122;5.406;2023-04-04T15:06:47;102847.53;;;16.22;30.45
72157;BME280;60035;52.122;5.406;2023-04-04T15:09:37;102853.22;;;16.38;31.13
72157;BME280;60035;52.122;5.406;2023-04-04T15:16:04;102843.78;;;16.35;31.75
72157;BME280;60035;52.122;5.406;2023-04-04T15:30:17;102844.88;;;15.34;31.67
72157;BME280;60035;52.122;5.406;2023-04-04T15:33:10;102845.00;;;15.26;31.43
72157;BME280;60035;52.122;5.406;2023-04-04T15:36:27;102843.81;;;14.93;31.64
72157;BME280;60035;52.122;5.406;2023-04-04T15:42:29;102830.72;;;15.05;32.62
72157;BME280;60035;52.122;5.406;2023-04-04T15:45:42;102830.06;;;14.94;32.08
72157;BME280;60035;52.122;5.406;2023-04-04T15:52:34;102826.97;;;14.70;32.68
72157;BME280;60035;52.122;5.406;2023-04-04T15:56:00;102821.91;;;14.62;33.63
72157;BME280;60035;52.122;5.406;2023-04-04T15:59:22;102823.78;;;14.51;33.11
72157;BME280;60035;52.122;5.406;2023-04-04T16:02:25;102810.75;;;14.62;32.83
72157;BME280;60035;52.122;5.406;2023-04-04T16:08:04;102797.06;;;14.57;33.85
72157;BME280;60035;52.122;5.406;2023-04-04T16:24:56;102808.63;;;13.56;34.60
72157;BME280;60035;52.122;5.406;2023-04-04T16:31:31;102795.16;;;13.25;35.77
72157;BME280;60035;52.122;5.406;2023-04-04T16:34:57;102791.97;;;12.95;36.89
72157;BME280;60035;52.122;5.406;2023-04-04T16:37:40;102793.81;;;12.80;37.33
72157;BME280;60035;52.122;5.406;2023-04-04T16:40:28;102799.06;;;12.65;38.22
72157;BME280;60035;52.122;5.406;2023-04-04T16:44:04;102798.31;;;12.49;39.28
72157;BME280;60035;52.122;5.406;2023-04-04T16:47:06;102794.09;;;12.39;40.00
72157;BME280;60035;52.122;5.406;2023-04-04T16:50:15;102797.59;;;12.22;39.65
72157;BME280;60035;52.122;5.406;2023-04-04T16:52:49;102798.44;;;12.20;40.69
72157;BME280;60035;52.122;5.406;2023-04-04T16:55:58;102795.03;;;12.22;41.40
72157;BME280;60035;52.122;5.406;2023-04-04T16:58:53;102790.81;;;12.12;41.53
72157;BME280;60035;52.122;5.406;2023-04-04T17:05:21;102783.91;;;12.20;40.89
72157;BME280;60035;52.122;5.406;2023-04-04T17:08:31;102788.22;;;12.09;40.73
72157;BME280;60035;52.122;5.406;2023-04-04T17:11:42;102789.16;;;11.95;40.76
72157;BME280;60035;52.122;5.406;2023-04-04T17:14:37;102792.59;;;11.82;41.70
72157;BME280;60035;52.122;5.406;2023-04-04T17:17:47;102784.94;;;11.59;41.61
72157;BME280;60035;52.122;5.406;2023-04-04T17:21:11;102784.13;;;11.40;42.14
72157;BME280;60035;52.122;5.406;2023-04-04T17:24:25;102785.00;;;11.29;43.03
72157;BME280;60035;52.122;5.406;2023-04-04T17:27:07;102785.88;;;11.21;42.75
72157;BME280;60035;52.122;5.406;2023-04-04T17:30:25;102785.91;;;11.02;43.84
72157;BME280;60035;52.122;5.406;2023-04-04T17:33:16;102787.59;;;10.88;44.12
72157;BME280;60035;52.122;5.406;2023-04-04T17:36:40;102795.22;;;10.66;44.77
72157;BME280;60035;52.122;5.406;2023-04-04T17:39:45;102791.78;;;10.45;45.20
72157;BME280;60035;52.122;5.406;2023-04-04T17:42:15;102792.56;;;10.30;45.31